createdAt,value
2022-11-24T00:01:40.941Z,54.25
2022-11-24T00:04:16.413Z,54.91
2022-11-24T00:06:49.462Z,56.37
2022-11-24T00:09:23.159Z,57.26
2022-11-24T00:11:56.380Z,58.48
2022-11-24T00:14:29.402Z,58.72
2022-11-24T00:17:02.530Z,61.19
2022-11-24T00:19:35.920Z,65.18
2022-11-24T00:22:09.700Z,70.04
2022-11-24T00:24:42.678Z,63.55
2022-11-24T00:27:16.303Z,57.69
2022-11-24T00:29:50.445Z,57.29
2022-11-24T00:32:24.257Z,59.67
2022-11-24T00:34:57.077Z,59.55
2022-11-24T00:37:30.275Z,66.18
2022-11-24T00:40:03.399Z,67.54
2022-11-24T00:42:36.645Z,64.82
2022-11-24T00:45:14.115Z,62.86
2022-11-24T00:47:47.625Z,57.62
2022-11-24T00:50:21.631Z,54.79
2022-11-24T00:52:54.605Z,56.65
2022-11-24T00:55:27.816Z,57.49
2022-11-24T00:58:00.916Z,60.51
2022-11-24T01:00:33.984Z,63.41
2022-11-24T01:03:08.040Z,67.29
2022-11-24T01:05:42.812Z,64.69
2022-11-24T01:08:16.547Z,61.53
2022-11-24T01:10:50.427Z,58.26
2022-11-24T01:13:23.616Z,55.29
2022-11-24T01:15:57.174Z,58.03
2022-11-24T01:18:30.427Z,60.47
2022-11-24T01:21:10.056Z,62.56
2022-11-24T01:23:44.218Z,67.84
2022-11-24T01:26:20.316Z,65.22
2022-11-24T01:28:59.311Z,59.88
2022-11-24T01:31:33.214Z,56.25
2022-11-24T01:34:06.840Z,56.95
2022-11-24T01:36:41.031Z,58.30
2022-11-24T01:39:14.869Z,61.03
2022-11-24T01:41:48.030Z,65.46
2022-11-24T01:44:32.072Z,68.77
2022-11-24T01:47:23.420Z,63.12
2022-11-24T01:50:01.603Z,63.39
2022-11-24T01:52:41.623Z,56.20
2022-11-24T01:55:21.062Z,54.10
2022-11-24T01:58:00.882Z,54.57
2022-11-24T02:00:35.986Z,56.89
2022-11-24T02:03:10.222Z,60.51
2022-11-24T02:05:51.259Z,62.14
2022-11-24T02:08:31.907Z,67.67
2022-11-24T02:11:07.727Z,70.32
2022-11-24T02:13:45.048Z,65.67
2022-11-24T02:16:18.279Z,61.22
2022-11-24T02:18:52.007Z,55.32
2022-11-24T02:21:25.349Z,55.00
2022-11-24T02:24:11.820Z,57.04
2022-11-24T02:26:49.127Z,59.56
2022-11-24T02:29:22.745Z,62.55
2022-11-24T02:32:00.973Z,69.51
2022-11-24T02:34:34.318Z,65.30
2022-11-24T02:37:07.863Z,59.35
2022-11-24T02:39:41.417Z,56.42
2022-11-24T02:42:17.298Z,58.52
2022-11-24T02:44:56.876Z,58.84
2022-11-24T02:47:31.631Z,60.05
2022-11-24T02:50:04.831Z,60.52
2022-11-24T02:52:37.881Z,65.02
2022-11-24T02:55:12.197Z,72.18
2022-11-24T02:57:47.403Z,69.06
2022-11-24T03:00:23.501Z,63.52
2022-11-24T03:02:56.595Z,61.58
2022-11-24T03:05:29.652Z,56.97
2022-11-24T03:08:02.668Z,54.07
2022-11-24T03:10:35.642Z,54.62
2022-11-24T03:13:08.746Z,56.82
2022-11-24T03:15:41.901Z,57.99
2022-11-24T03:18:15.559Z,59.56
2022-11-24T03:20:48.632Z,65.63
2022-11-24T03:23:21.693Z,70.75
2022-11-24T03:25:55.448Z,64.70
2022-11-24T03:28:28.661Z,62.68
2022-11-24T03:31:02.258Z,62.53
2022-11-24T03:33:35.687Z,55.93
2022-11-24T03:36:13.238Z,53.83
2022-11-24T03:38:46.907Z,55.44
2022-11-24T03:41:19.893Z,56.42
2022-11-24T03:43:53.128Z,56.80
2022-11-24T03:46:26.168Z,59.26
2022-11-24T03:48:59.254Z,59.95
2022-11-24T03:51:32.269Z,65.10
2022-11-24T03:54:05.343Z,68.25
2022-11-24T03:56:38.960Z,66.47
2022-11-24T03:59:15.231Z,62.55
2022-11-24T04:01:48.775Z,61.31
2022-11-24T04:04:22.007Z,57.26
2022-11-24T04:06:55.094Z,53.52
2022-11-24T04:09:28.129Z,55.43
2022-11-24T04:12:18.640Z,57.24
2022-11-24T04:14:51.766Z,58.12
2022-11-24T04:17:24.983Z,57.95
2022-11-24T04:19:58.121Z,61.59
2022-11-24T04:22:31.669Z,68.82
2022-11-24T04:25:05.646Z,66.49
2022-11-24T04:27:40.792Z,62.08
2022-11-24T04:30:15.444Z,57.97
2022-11-24T04:32:48.511Z,55.08
2022-11-24T04:35:23.219Z,56.02
2022-11-24T04:37:56.524Z,58.16
2022-11-24T04:40:30.501Z,59.45
2022-11-24T04:43:03.939Z,61.41
2022-11-24T04:45:37.044Z,65.99
2022-11-24T04:48:10.578Z,69.60
2022-11-24T04:50:44.161Z,67.67
2022-11-24T04:53:18.115Z,62.73
2022-11-24T04:55:51.633Z,58.76
2022-11-24T04:58:25.891Z,54.93
2022-11-24T05:01:00.334Z,54.92
2022-11-24T05:03:33.582Z,57.58
2022-11-24T05:06:09.346Z,60.28
2022-11-24T05:08:42.234Z,61.74
2022-11-24T05:11:15.784Z,66.88
2022-11-24T05:13:51.093Z,66.21
2022-11-24T05:16:24.121Z,63.60
2022-11-24T05:18:57.106Z,62.95
2022-11-24T05:21:31.240Z,59.11
2022-11-24T05:24:04.663Z,55.55
2022-11-24T05:26:38.456Z,55.49
2022-11-24T05:29:11.776Z,56.05
2022-11-24T05:31:45.013Z,58.30
2022-11-24T05:34:18.670Z,60.12
2022-11-24T05:36:54.695Z,59.51
2022-11-24T05:39:28.128Z,60.26
2022-11-24T05:42:23.189Z,65.86
2022-11-24T05:44:57.809Z,67.47
2022-11-24T05:47:31.342Z,67.57
2022-11-24T05:50:05.185Z,64.43
2022-11-24T05:52:39.041Z,63.68
2022-11-24T05:55:16.192Z,62.43
2022-11-24T05:57:49.146Z,60.97
2022-11-24T06:00:23.283Z,56.66
2022-11-24T06:02:58.437Z,53.08
2022-11-24T06:05:32.607Z,53.78
2022-11-24T06:08:06.022Z,54.47
2022-11-24T06:10:38.752Z,55.99
2022-11-24T06:13:12.396Z,58.26
2022-11-24T06:15:45.898Z,62.18
2022-11-24T06:18:19.041Z,65.25
2022-11-24T06:21:09.753Z,65.30
2022-11-24T06:23:45.393Z,63.64
2022-11-24T06:26:19.100Z,62.28
2022-11-24T06:28:52.674Z,61.40
2022-11-24T06:31:26.039Z,60.79
2022-11-24T06:34:00.993Z,56.43
2022-11-24T06:36:34.007Z,52.95
2022-11-24T06:39:08.221Z,54.76
2022-11-24T06:41:42.056Z,55.12
2022-11-24T06:44:15.552Z,55.97
2022-11-24T06:46:49.364Z,56.98
2022-11-24T06:49:22.588Z,58.27
2022-11-24T06:51:57.237Z,60.06
2022-11-24T06:54:31.063Z,60.83
2022-11-24T06:57:04.992Z,64.90
2022-11-24T06:59:38.816Z,70.94
2022-11-24T07:02:13.795Z,70.18
2022-11-24T07:04:46.880Z,67.12
2022-11-24T07:07:20.307Z,63.63
2022-11-24T07:09:53.413Z,58.87
2022-11-24T07:12:26.655Z,54.78
2022-11-24T07:14:59.540Z,53.70
2022-11-24T07:17:32.820Z,54.55
2022-11-24T07:20:06.659Z,56.06
2022-11-24T07:22:40.392Z,56.50
2022-11-24T07:25:14.932Z,57.88
2022-11-24T07:27:48.271Z,58.61
2022-11-24T07:30:22.044Z,60.61
2022-11-24T07:32:59.820Z,62.83
2022-11-24T07:35:34.028Z,68.12
2022-11-24T07:38:07.602Z,67.21
2022-11-24T07:40:41.078Z,66.06
2022-11-24T07:43:19.808Z,63.76
2022-11-24T07:45:57.988Z,60.44
2022-11-24T07:48:32.147Z,55.80
2022-11-24T07:51:06.754Z,54.12
2022-11-24T07:53:40.905Z,55.15
2022-11-24T07:56:14.698Z,57.79
2022-11-24T07:58:52.663Z,58.53
2022-11-24T08:01:26.834Z,59.59
2022-11-24T08:04:00.150Z,60.75
2022-11-24T08:06:39.699Z,64.59
2022-11-24T08:09:13.895Z,68.74
2022-11-24T08:11:47.477Z,62.94
2022-11-24T08:14:20.379Z,62.14
2022-11-24T08:16:54.126Z,59.06
2022-11-24T08:19:28.659Z,54.54
2022-11-24T08:22:02.726Z,55.60
2022-11-24T08:24:36.202Z,56.88
2022-11-24T08:27:10.207Z,58.35
2022-11-24T08:29:44.943Z,59.32
2022-11-24T08:32:22.236Z,58.73
2022-11-24T08:34:59.693Z,62.28
2022-11-24T08:37:42.095Z,67.55
2022-11-24T08:40:17.210Z,67.72
2022-11-24T08:42:50.401Z,64.15
2022-11-24T08:45:25.646Z,58.80
2022-11-24T08:48:00.343Z,54.11
2022-11-24T08:50:35.845Z,52.75
2022-11-24T08:53:09.278Z,53.71
2022-11-24T08:55:43.167Z,55.81
2022-11-24T08:58:16.845Z,57.02
2022-11-24T09:00:51.115Z,57.93
2022-11-24T09:03:24.302Z,60.57
2022-11-24T09:05:59.104Z,65.47
2022-11-24T09:08:34.551Z,69.29
2022-11-24T09:11:12.284Z,67.62
2022-11-24T09:13:46.208Z,61.89
2022-11-24T09:16:22.425Z,54.48
2022-11-24T09:19:02.721Z,52.11
2022-11-24T09:21:39.325Z,54.08
2022-11-24T09:24:16.777Z,54.49
2022-11-24T09:26:50.900Z,57.21
2022-11-24T09:29:24.508Z,59.06
2022-11-24T09:32:02.047Z,59.83
2022-11-24T09:34:38.061Z,64.83
2022-11-24T09:37:12.530Z,66.26
2022-11-24T09:39:46.473Z,62.43
2022-11-24T09:42:32.151Z,57.46
2022-11-24T09:45:41.996Z,54.30
2022-11-24T09:48:32.414Z,55.26
2022-11-24T09:51:11.932Z,58.05
2022-11-24T09:53:53.182Z,58.67
2022-11-24T09:56:30.300Z,59.40
2022-11-24T09:59:12.209Z,63.19
2022-11-24T10:01:48.672Z,68.93
2022-11-24T10:04:28.134Z,64.77
2022-11-24T10:07:17.626Z,63.21
2022-11-24T10:10:05.207Z,57.10
2022-11-24T10:12:59.388Z,54.98
2022-11-24T10:15:46.566Z,56.84
2022-11-24T10:18:47.176Z,57.66
2022-11-24T10:21:41.308Z,58.67
2022-11-24T10:24:50.137Z,61.52
2022-11-24T10:27:31.720Z,69.13
2022-11-24T10:30:13.373Z,63.62
2022-11-24T10:32:51.403Z,59.88
2022-11-24T10:35:36.879Z,54.89
2022-11-24T10:38:31.127Z,54.15
2022-11-24T10:41:13.955Z,56.30
2022-11-24T10:43:47.406Z,59.25
2022-11-24T10:46:32.539Z,60.75
2022-11-24T10:49:16.495Z,61.21
2022-11-24T10:52:18.383Z,66.80
2022-11-24T10:55:05.740Z,65.98
2022-11-24T10:57:41.908Z,62.49
2022-11-24T11:00:36.173Z,59.68
2022-11-24T11:03:24.799Z,53.71
2022-11-24T11:06:03.618Z,54.47
2022-11-24T11:08:37.259Z,54.31
2022-11-24T11:11:31.717Z,55.80
2022-11-24T11:14:07.921Z,57.02
2022-11-24T11:16:46.171Z,59.03
2022-11-24T11:22:28.709Z,64.26
2022-11-24T11:25:23.056Z,63.86
2022-11-24T11:28:28.449Z,58.00
2022-11-24T11:31:17.545Z,52.75
2022-11-24T11:34:07.333Z,53.30
2022-11-24T11:36:48.671Z,54.40
2022-11-24T11:39:34.047Z,58.07
2022-11-24T11:42:45.816Z,58.99
2022-11-24T11:45:23.056Z,60.89
2022-11-24T11:48:08.042Z,66.87
2022-11-24T11:54:02.049Z,61.33
2022-11-24T11:56:41.275Z,54.92
2022-11-24T11:59:43.168Z,52.20
2022-11-24T12:03:06.945Z,53.34
2022-11-24T12:05:58.317Z,56.27
2022-11-24T12:09:18.589Z,59.28
2022-11-24T12:11:51.710Z,59.48
2022-11-24T12:14:43.317Z,63.62
2022-11-24T12:17:30.918Z,66.70
2022-11-24T12:20:31.399Z,64.49
2022-11-24T12:23:22.372Z,61.86
2022-11-24T12:26:07.590Z,56.96
2022-11-24T12:28:59.075Z,53.09
2022-11-24T12:31:43.315Z,54.27
2022-11-24T12:34:42.098Z,54.83
2022-11-24T12:37:47.339Z,57.04
2022-11-24T12:40:46.670Z,58.11
2022-11-24T12:43:31.623Z,59.74
2022-11-24T12:46:17.747Z,64.36
2022-11-24T12:49:11.045Z,63.29
2022-11-24T12:51:50.685Z,61.87
2022-11-24T12:54:27.490Z,57.25
2022-11-24T12:57:09.605Z,52.90
2022-11-24T12:59:53.260Z,52.74
2022-11-24T13:02:46.665Z,53.87
2022-11-24T13:05:30.120Z,55.34
2022-11-24T13:08:07.742Z,57.22
2022-11-24T13:10:58.824Z,60.06
2022-11-24T13:14:00.127Z,59.35
2022-11-24T13:16:37.167Z,58.83
2022-11-24T13:19:21.825Z,59.29
2022-11-24T13:22:15.536Z,63.76
2022-11-24T13:25:05.857Z,70.83
2022-11-24T13:27:55.735Z,67.68
2022-11-24T13:31:10.070Z,65.34
2022-11-24T13:33:45.517Z,62.30
2022-11-24T13:36:53.845Z,56.64
2022-11-24T13:39:52.644Z,51.35
2022-11-24T13:42:43.428Z,51.48
2022-11-24T13:45:52.573Z,53.17
2022-11-24T13:49:01.731Z,54.13
2022-11-24T13:51:35.570Z,56.05
2022-11-24T13:54:15.496Z,56.68
2022-11-24T13:56:49.360Z,57.54
2022-11-24T13:59:35.810Z,58.52
2022-11-24T14:02:26.948Z,59.04
2022-11-24T14:05:01.478Z,60.45
2022-11-24T14:07:36.361Z,64.86
2022-11-24T14:10:19.573Z,67.06
2022-11-24T14:13:25.579Z,66.70
2022-11-24T14:16:18.089Z,64.83
2022-11-24T14:18:53.444Z,61.98
2022-11-24T14:21:38.740Z,57.09
2022-11-24T14:24:39.950Z,52.10
2022-11-24T14:27:21.680Z,52.71
2022-11-24T14:30:01.880Z,52.91
2022-11-24T14:32:35.643Z,53.67
2022-11-24T14:35:27.372Z,54.63
2022-11-24T14:38:02.947Z,56.59
2022-11-24T14:40:50.395Z,57.71
2022-11-24T14:43:35.010Z,58.86
2022-11-24T14:46:19.633Z,59.04
2022-11-24T14:48:55.892Z,61.28
2022-11-24T14:51:34.700Z,66.17
2022-11-24T14:54:19.839Z,68.35
2022-11-24T14:57:06.358Z,65.43
2022-11-24T14:59:40.754Z,63.86
2022-11-24T15:02:47.828Z,60.92
2022-11-24T15:05:22.595Z,54.60
2022-11-24T15:08:05.039Z,52.23
2022-11-24T15:10:42.498Z,53.24
2022-11-24T15:13:25.265Z,54.53
2022-11-24T15:16:03.908Z,56.92
2022-11-24T15:18:44.808Z,56.65
2022-11-24T15:21:32.072Z,57.65
2022-11-24T15:24:20.934Z,60.07
2022-11-24T15:27:02.218Z,59.87
2022-11-24T15:29:36.036Z,61.26
2022-11-24T15:32:17.330Z,65.37
2022-11-24T15:34:50.514Z,69.73
2022-11-24T15:37:23.591Z,59.76
2022-11-24T15:39:56.638Z,55.51
2022-11-24T15:42:29.489Z,54.54
2022-11-24T15:45:03.618Z,56.51
2022-11-24T15:47:36.959Z,57.97
2022-11-24T15:50:13.306Z,60.41
2022-11-24T15:52:47.574Z,60.16
2022-11-24T15:55:25.568Z,62.20
2022-11-24T15:57:59.821Z,67.24
2022-11-24T16:00:34.242Z,66.85
2022-11-24T16:03:38.338Z,63.26
2022-11-24T16:06:02.889Z,62.99
2022-11-24T16:08:36.998Z,60.91
2022-11-24T16:11:10.159Z,56.66
2022-11-24T16:13:50.109Z,51.99
2022-11-24T16:16:26.716Z,52.38
2022-11-24T16:19:01.734Z,54.30
2022-11-24T16:21:35.503Z,55.46
2022-11-24T16:24:10.810Z,58.30
2022-11-24T16:26:44.947Z,58.42
2022-11-24T16:29:21.486Z,58.97
2022-11-24T16:31:56.225Z,59.71
2022-11-24T16:34:29.758Z,60.25
2022-11-24T16:37:03.569Z,64.86
2022-11-24T16:39:36.812Z,65.63
2022-11-24T16:42:10.181Z,62.35
2022-11-24T16:44:43.717Z,56.30
2022-11-24T16:47:17.406Z,55.14
2022-11-24T16:49:51.888Z,55.47
2022-11-24T16:52:26.354Z,57.74
2022-11-24T16:55:01.956Z,58.07
2022-11-24T16:57:36.767Z,58.58
2022-11-24T17:00:13.720Z,59.83
2022-11-24T17:02:48.269Z,60.13
2022-11-24T17:05:21.825Z,60.81
2022-11-24T17:07:55.602Z,64.96
2022-11-24T17:10:29.489Z,72.04
2022-11-24T17:13:03.648Z,68.62
2022-11-24T17:15:45.322Z,61.65
2022-11-24T17:18:25.421Z,55.36
2022-11-24T17:21:07.754Z,53.71
2022-11-24T17:23:43.167Z,54.84
2022-11-24T17:26:19.922Z,55.65
2022-11-24T17:28:52.910Z,55.81
2022-11-24T17:31:28.678Z,57.44
2022-11-24T17:34:04.065Z,58.57
2022-11-24T17:36:39.055Z,59.07
2022-11-24T17:39:12.964Z,60.49
2022-11-24T17:41:47.371Z,65.71
2022-11-24T17:44:20.921Z,66.04
2022-11-24T17:46:54.616Z,66.67
2022-11-24T17:49:28.311Z,64.05
2022-11-24T17:52:01.886Z,61.83
2022-11-24T17:54:50.234Z,56.56
2022-11-24T17:57:26.950Z,52.85
2022-11-24T18:00:00.642Z,54.12
2022-11-24T18:02:34.234Z,54.85
2022-11-24T18:05:09.166Z,56.56
2022-11-24T18:07:42.436Z,57.44
2022-11-24T18:10:16.635Z,57.90
2022-11-24T18:12:50.626Z,60.38
2022-11-24T18:15:23.794Z,60.54
2022-11-24T18:17:57.930Z,60.77
2022-11-24T18:20:33.006Z,64.59
2022-11-24T18:23:06.381Z,68.60
2022-11-24T18:25:39.587Z,68.09
2022-11-24T18:28:13.345Z,65.06
2022-11-24T18:30:46.595Z,61.32
2022-11-24T18:33:21.306Z,56.23
2022-11-24T18:36:04.907Z,53.81
2022-11-24T18:38:40.331Z,55.03
2022-11-24T18:41:15.589Z,55.45
2022-11-24T18:43:49.568Z,56.53
2022-11-24T18:46:23.771Z,57.71
2022-11-24T18:48:58.003Z,60.64
2022-11-24T18:51:31.425Z,63.05
2022-11-24T18:54:05.742Z,65.98
2022-11-24T18:56:38.980Z,66.13
2022-11-24T18:59:13.882Z,63.23
2022-11-24T19:01:47.648Z,59.55
2022-11-24T19:04:21.885Z,54.11
2022-11-24T19:06:55.617Z,53.14
2022-11-24T19:09:30.191Z,53.73
2022-11-24T19:12:04.236Z,55.48
2022-11-24T19:14:38.412Z,59.16
2022-11-24T19:17:11.446Z,60.72
2022-11-24T19:19:45.474Z,60.61
2022-11-24T19:22:19.781Z,60.50
2022-11-24T19:24:53.205Z,62.07
2022-11-24T19:27:26.398Z,66.54
2022-11-24T19:30:00.180Z,60.45
2022-11-24T19:32:35.845Z,56.72
2022-11-24T19:35:10.613Z,56.59
2022-11-24T19:37:43.542Z,56.54
2022-11-24T19:40:18.767Z,59.58
2022-11-24T19:42:52.798Z,61.88
2022-11-24T19:45:26.096Z,64.36
2022-11-24T19:47:59.765Z,62.27
2022-11-24T19:50:32.466Z,56.97
2022-11-24T19:53:05.793Z,57.77
2022-11-24T19:55:39.056Z,60.63
2022-11-24T19:58:12.763Z,62.74
2022-11-24T20:00:46.806Z,64.18
2022-11-24T20:03:20.026Z,58.00
2022-11-24T20:06:00.695Z,57.28
2022-11-24T20:08:36.434Z,59.43
2022-11-24T20:11:13.634Z,62.99
2022-11-24T20:13:53.066Z,62.53
2022-11-24T20:16:30.045Z,56.84
2022-11-24T20:19:06.090Z,57.57
2022-11-24T20:21:41.723Z,59.21
2022-11-24T20:24:18.199Z,58.65
2022-11-24T20:26:54.725Z,59.76
2022-11-24T20:29:29.468Z,62.49
2022-11-24T20:32:02.777Z,66.65
2022-11-24T20:34:37.767Z,67.79
2022-11-24T20:37:13.593Z,62.95
2022-11-24T20:39:48.011Z,62.29
2022-11-24T20:42:21.020Z,58.17
2022-11-24T20:44:54.315Z,54.02
2022-11-24T20:47:27.962Z,55.82
2022-11-24T20:50:01.188Z,55.35
2022-11-24T20:52:35.009Z,58.83
2022-11-24T20:55:10.050Z,59.01
2022-11-24T20:57:43.209Z,59.87
2022-11-24T21:00:18.241Z,62.87
2022-11-24T21:02:51.745Z,67.08
2022-11-24T21:05:26.850Z,63.06
2022-11-24T21:07:59.781Z,60.02
2022-11-24T21:10:33.047Z,57.49
2022-11-24T21:13:07.091Z,57.85
2022-11-24T21:15:40.461Z,58.67
2022-11-24T21:18:14.621Z,59.47
2022-11-24T21:20:49.367Z,59.89
2022-11-24T21:23:22.476Z,62.76
2022-11-24T21:26:05.175Z,68.30
2022-11-24T21:28:39.267Z,62.63
2022-11-24T21:31:16.973Z,62.92
2022-11-24T21:33:52.302Z,61.41
2022-11-24T21:36:28.079Z,56.90
2022-11-24T21:39:03.134Z,54.45
2022-11-24T21:41:37.922Z,56.51
2022-11-24T21:44:11.731Z,57.30
2022-11-24T21:46:52.465Z,60.78
2022-11-24T21:49:29.333Z,63.06
2022-11-24T21:52:02.874Z,64.64
2022-11-24T21:54:36.868Z,60.97
2022-11-24T23:04:30.470Z,66.19
2022-11-24T23:07:04.276Z,59.12
2022-11-24T23:09:38.241Z,55.66
2022-11-24T23:12:12.313Z,57.47
2022-11-24T23:14:46.178Z,57.38
2022-11-24T23:17:20.030Z,57.13
2022-11-24T23:19:53.483Z,59.57
2022-11-24T23:22:26.881Z,63.26
2022-11-24T23:25:00.596Z,65.32
2022-11-24T23:27:34.350Z,63.42
2022-11-24T23:30:09.830Z,58.59
2022-11-24T23:32:43.868Z,56.28
2022-11-24T23:35:17.541Z,56.62
2022-11-24T23:38:07.562Z,56.21
2022-11-24T23:40:42.378Z,59.78
2022-11-24T23:43:15.766Z,60.96
2022-11-24T23:45:49.711Z,65.29
2022-11-24T23:48:23.477Z,67.50
2022-11-24T23:50:57.432Z,65.72
2022-11-24T23:53:34.484Z,63.64
2022-11-24T23:56:08.939Z,61.25
2022-11-24T23:58:43.103Z,54.33
